sensor_id;sensor_type;location;lat;lon;timestamp;P1;durP1;ratioP1;P2;durP2;ratioP2
73015;SDS011;61893;50.074;14.440;2023-07-09T00:02:30;7.85;;;4.28;;
73015;SDS011;61893;50.074;14.440;2023-07-09T00:04:55;7.90;;;4.72;;
73015;SDS011;61893;50.074;14.440;2023-07-09T00:07:29;8.02;;;4.22;;
73015;SDS011;61893;50.074;14.440;2023-07-09T00:09:57;8.30;;;4.47;;
73015;SDS011;61893;50.074;14.440;2023-07-09T00:12:24;6.07;;;4.40;;
73015;SDS011;61893;50.074;14.440;2023-07-09T00:14:50;6.95;;;4.25;;
73015;SDS011;61893;50.074;14.440;2023-07-09T00:17:27;11.40;;;4.38;;
73015;SDS011;61893;50.074;14.440;2023-07-09T00:19:55;7.22;;;4.25;;
73015;SDS011;61893;50.074;14.440;2023-07-09T00:22:36;6.97;;;4.55;;
73015;SDS011;61893;50.074;14.440;2023-07-09T00:25:03;8.18;;;4.35;;
73015;SDS011;61893;50.074;14.440;2023-07-09T00:27:32;7.50;;;4.93;;
73015;SDS011;61893;50.074;14.440;2023-07-09T00:30:01;6.47;;;4.72;;
73015;SDS011;61893;50.074;14.440;2023-07-09T00:32:28;8.43;;;4.82;;
73015;SDS011;61893;50.074;14.440;2023-07-09T00:34:54;7.47;;;4.97;;
73015;SDS011;61893;50.074;14.440;2023-07-09T00:37:21;6.50;;;4.90;;
73015;SDS011;61893;50.074;14.440;2023-07-09T00:39:53;6.22;;;4.60;;
73015;SDS011;61893;50.074;14.440;2023-07-09T00:42:21;6.43;;;4.63;;
73015;SDS011;61893;50.074;14.440;2023-07-09T00:45:07;6.72;;;4.47;;
73015;SDS011;61893;50.074;14.440;2023-07-09T00:47:51;8.00;;;4.93;;
73015;SDS011;61893;50.074;14.440;2023-07-09T00:53:25;7.60;;;4.57;;
73015;SDS011;61893;50.074;14.440;2023-07-09T00:55:58;7.53;;;4.68;;
73015;SDS011;61893;50.074;14.440;2023-07-09T00:58:30;7.95;;;4.55;;
73015;SDS011;61893;50.074;14.440;2023-07-09T01:01:02;6.38;;;4.78;;
73015;SDS011;61893;50.074;14.440;2023-07-09T01:03:35;9.20;;;4.30;;
73015;SDS011;61893;50.074;14.440;2023-07-09T01:06:06;6.03;;;4.55;;
73015;SDS011;61893;50.074;14.440;2023-07-09T01:08:33;8.55;;;4.70;;
73015;SDS011;61893;50.074;14.440;2023-07-09T01:11:01;8.45;;;4.88;;
73015;SDS011;61893;50.074;14.440;2023-07-09T01:13:30;7.53;;;4.55;;
73015;SDS011;61893;50.074;14.440;2023-07-09T01:16:00;7.10;;;4.85;;
73015;SDS011;61893;50.074;14.440;2023-07-09T01:18:26;5.50;;;4.38;;
73015;SDS011;61893;50.074;14.440;2023-07-09T01:21:02;9.32;;;4.95;;
73015;SDS011;61893;50.074;14.440;2023-07-09T01:23:33;8.82;;;5.68;;
73015;SDS011;61893;50.074;14.440;2023-07-09T01:26:00;5.95;;;4.35;;
73015;SDS011;61893;50.074;14.440;2023-07-09T01:28:26;8.52;;;4.68;;
73015;SDS011;61893;50.074;14.440;2023-07-09T01:30:52;7.55;;;4.82;;
73015;SDS011;61893;50.074;14.440;2023-07-09T01:33:20;5.70;;;4.55;;
73015;SDS011;61893;50.074;14.440;2023-07-09T01:35:47;7.57;;;4.80;;
73015;SDS011;61893;50.074;14.440;2023-07-09T01:38:13;6.32;;;4.43;;
73015;SDS011;61893;50.074;14.440;2023-07-09T01:40:41;7.55;;;4.75;;
73015;SDS011;61893;50.074;14.440;2023-07-09T01:43:07;10.23;;;4.90;;
73015;SDS011;61893;50.074;14.440;2023-07-09T01:45:34;6.75;;;4.72;;
73015;SDS011;61893;50.074;14.440;2023-07-09T01:48:04;7.35;;;4.78;;
73015;SDS011;61893;50.074;14.440;2023-07-09T01:50:31;6.22;;;4.65;;
73015;SDS011;61893;50.074;14.440;2023-07-09T01:52:57;6.55;;;4.57;;
73015;SDS011;61893;50.074;14.440;2023-07-09T01:55:24;7.40;;;4.40;;
73015;SDS011;61893;50.074;14.440;2023-07-09T01:57:50;7.78;;;4.63;;
73015;SDS011;61893;50.074;14.440;2023-07-09T02:00:17;6.88;;;4.75;;
73015;SDS011;61893;50.074;14.440;2023-07-09T02:02:44;6.07;;;4.60;;
73015;SDS011;61893;50.074;14.440;2023-07-09T02:05:12;8.07;;;4.45;;
73015;SDS011;61893;50.074;14.440;2023-07-09T02:07:40;6.28;;;4.18;;
73015;SDS011;61893;50.074;14.440;2023-07-09T02:10:06;5.72;;;4.07;;
73015;SDS011;61893;50.074;14.440;2023-07-09T02:12:32;6.35;;;4.38;;
73015;SDS011;61893;50.074;14.440;2023-07-09T02:14:58;7.18;;;4.03;;
73015;SDS011;61893;50.074;14.440;2023-07-09T02:17:24;7.32;;;4.50;;
73015;SDS011;61893;50.074;14.440;2023-07-09T02:19:49;5.43;;;4.45;;
73015;SDS011;61893;50.074;14.440;2023-07-09T02:22:16;6.55;;;4.25;;
73015;SDS011;61893;50.074;14.440;2023-07-09T02:24:41;6.65;;;4.43;;
73015;SDS011;61893;50.074;14.440;2023-07-09T02:27:08;8.15;;;4.60;;
73015;SDS011;61893;50.074;14.440;2023-07-09T02:29:35;5.72;;;4.32;;
73015;SDS011;61893;50.074;14.440;2023-07-09T02:32:01;8.65;;;4.32;;
73015;SDS011;61893;50.074;14.440;2023-07-09T02:34:28;7.40;;;4.55;;
73015;SDS011;61893;50.074;14.440;2023-07-09T02:36:58;6.18;;;4.22;;
73015;SDS011;61893;50.074;14.440;2023-07-09T02:39:24;5.65;;;4.65;;
73015;SDS011;61893;50.074;14.440;2023-07-09T02:41:50;7.63;;;5.00;;
73015;SDS011;61893;50.074;14.440;2023-07-09T02:44:16;5.38;;;3.92;;
73015;SDS011;61893;50.074;14.440;2023-07-09T02:46:43;9.77;;;5.07;;
73015;SDS011;61893;50.074;14.440;2023-07-09T02:49:11;7.22;;;4.57;;
73015;SDS011;61893;50.074;14.440;2023-07-09T02:51:38;7.30;;;4.55;;
73015;SDS011;61893;50.074;14.440;2023-07-09T02:54:05;7.68;;;4.50;;
73015;SDS011;61893;50.074;14.440;2023-07-09T02:56:32;5.90;;;4.60;;
73015;SDS011;61893;50.074;14.440;2023-07-09T02:58:58;8.80;;;4.45;;
73015;SDS011;61893;50.074;14.440;2023-07-09T03:01:24;7.00;;;4.72;;
73015;SDS011;61893;50.074;14.440;2023-07-09T03:03:52;7.88;;;5.40;;
73015;SDS011;61893;50.074;14.440;2023-07-09T03:06:23;5.47;;;4.35;;
73015;SDS011;61893;50.074;14.440;2023-07-09T03:08:49;6.43;;;4.50;;
73015;SDS011;61893;50.074;14.440;2023-07-09T03:11:17;5.53;;;4.57;;
73015;SDS011;61893;50.074;14.440;2023-07-09T03:13:44;6.68;;;4.30;;
73015;SDS011;61893;50.074;14.440;2023-07-09T03:16:12;7.53;;;4.95;;
73015;SDS011;61893;50.074;14.440;2023-07-09T03:18:38;9.57;;;4.85;;
73015;SDS011;61893;50.074;14.440;2023-07-09T03:21:04;7.60;;;4.50;;
73015;SDS011;61893;50.074;14.440;2023-07-09T03:23:30;6.45;;;4.70;;
73015;SDS011;61893;50.074;14.440;2023-07-09T03:25:56;7.15;;;4.85;;
73015;SDS011;61893;50.074;14.440;2023-07-09T03:28:22;8.10;;;5.10;;
73015;SDS011;61893;50.074;14.440;2023-07-09T03:30:49;6.30;;;4.90;;
73015;SDS011;61893;50.074;14.440;2023-07-09T03:33:18;9.05;;;4.70;;
73015;SDS011;61893;50.074;14.440;2023-07-09T03:35:43;5.50;;;4.28;;
73015;SDS011;61893;50.074;14.440;2023-07-09T03:38:09;13.85;;;4.50;;
73015;SDS011;61893;50.074;14.440;2023-07-09T03:40:37;6.22;;;4.75;;
73015;SDS011;61893;50.074;14.440;2023-07-09T03:43:03;12.07;;;4.80;;
73015;SDS011;61893;50.074;14.440;2023-07-09T03:45:33;6.43;;;4.68;;
73015;SDS011;61893;50.074;14.440;2023-07-09T03:47:59;7.05;;;4.68;;
73015;SDS011;61893;50.074;14.440;2023-07-09T03:50:26;6.47;;;4.80;;
73015;SDS011;61893;50.074;14.440;2023-07-09T03:52:52;6.68;;;4.50;;
73015;SDS011;61893;50.074;14.440;2023-07-09T03:55:18;6.38;;;4.70;;
73015;SDS011;61893;50.074;14.440;2023-07-09T03:57:43;6.63;;;4.68;;
73015;SDS011;61893;50.074;14.440;2023-07-09T04:00:10;5.80;;;4.65;;
73015;SDS011;61893;50.074;14.440;2023-07-09T04:02:37;5.97;;;4.72;;
73015;SDS011;61893;50.074;14.440;2023-07-09T04:05:04;6.80;;;4.40;;
73015;SDS011;61893;50.074;14.440;2023-07-09T04:07:31;7.28;;;5.18;;
73015;SDS011;61893;50.074;14.440;2023-07-09T04:10:00;6.43;;;4.25;;
73015;SDS011;61893;50.074;14.440;2023-07-09T04:12:25;6.43;;;4.32;;
73015;SDS011;61893;50.074;14.440;2023-07-09T04:14:52;8.45;;;4.35;;
73015;SDS011;61893;50.074;14.440;2023-07-09T04:17:17;6.57;;;4.32;;
73015;SDS011;61893;50.074;14.440;2023-07-09T04:19:43;6.75;;;4.55;;
73015;SDS011;61893;50.074;14.440;2023-07-09T04:22:13;6.85;;;4.00;;
73015;SDS011;61893;50.074;14.440;2023-07-09T04:24:39;5.97;;;4.60;;
73015;SDS011;61893;50.074;14.440;2023-07-09T04:27:04;6.93;;;4.65;;
73015;SDS011;61893;50.074;14.440;2023-07-09T04:29:31;6.25;;;4.60;;
73015;SDS011;61893;50.074;14.440;2023-07-09T04:32:03;5.70;;;4.28;;
73015;SDS011;61893;50.074;14.440;2023-07-09T04:34:30;5.18;;;4.05;;
73015;SDS011;61893;50.074;14.440;2023-07-09T04:36:56;7.50;;;4.57;;
73015;SDS011;61893;50.074;14.440;2023-07-09T04:39:22;7.47;;;4.30;;
73015;SDS011;61893;50.074;14.440;2023-07-09T04:41:48;6.40;;;4.35;;
73015;SDS011;61893;50.074;14.440;2023-07-09T04:44:15;6.10;;;4.40;;
73015;SDS011;61893;50.074;14.440;2023-07-09T04:46:41;8.07;;;4.22;;
73015;SDS011;61893;50.074;14.440;2023-07-09T04:49:08;7.68;;;4.40;;
73015;SDS011;61893;50.074;14.440;2023-07-09T04:51:35;5.57;;;4.50;;
73015;SDS011;61893;50.074;14.440;2023-07-09T04:54:01;9.57;;;4.47;;
73015;SDS011;61893;50.074;14.440;2023-07-09T04:56:30;7.75;;;4.45;;
73015;SDS011;61893;50.074;14.440;2023-07-09T04:58:56;5.70;;;3.95;;
73015;SDS011;61893;50.074;14.440;2023-07-09T05:01:22;6.80;;;4.70;;
73015;SDS011;61893;50.074;14.440;2023-07-09T05:03:52;7.15;;;4.20;;
73015;SDS011;61893;50.074;14.440;2023-07-09T05:06:17;5.90;;;4.25;;
73015;SDS011;61893;50.074;14.440;2023-07-09T05:08:43;6.28;;;4.05;;
73015;SDS011;61893;50.074;14.440;2023-07-09T05:11:09;6.20;;;4.35;;
73015;SDS011;61893;50.074;14.440;2023-07-09T05:13:38;6.57;;;4.40;;
73015;SDS011;61893;50.074;14.440;2023-07-09T05:16:06;6.10;;;4.15;;
73015;SDS011;61893;50.074;14.440;2023-07-09T05:18:32;6.07;;;4.35;;
73015;SDS011;61893;50.074;14.440;2023-07-09T05:20:58;5.80;;;4.40;;
73015;SDS011;61893;50.074;14.440;2023-07-09T05:23:24;7.40;;;4.00;;
73015;SDS011;61893;50.074;14.440;2023-07-09T05:25:57;6.00;;;4.78;;
73015;SDS011;61893;50.074;14.440;2023-07-09T05:28:28;7.03;;;4.35;;
73015;SDS011;61893;50.074;14.440;2023-07-09T05:30:54;7.18;;;4.30;;
73015;SDS011;61893;50.074;14.440;2023-07-09T05:33:21;4.65;;;4.03;;
73015;SDS011;61893;50.074;14.440;2023-07-09T05:35:47;7.68;;;4.72;;
73015;SDS011;61893;50.074;14.440;2023-07-09T05:38:14;5.03;;;4.10;;
73015;SDS011;61893;50.074;14.440;2023-07-09T05:40:40;6.07;;;4.20;;
73015;SDS011;61893;50.074;14.440;2023-07-09T05:43:08;6.95;;;4.03;;
73015;SDS011;61893;50.074;14.440;2023-07-09T05:45:34;9.10;;;4.60;;
73015;SDS011;61893;50.074;14.440;2023-07-09T05:48:01;4.25;;;3.72;;
73015;SDS011;61893;50.074;14.440;2023-07-09T05:50:27;6.28;;;4.00;;
73015;SDS011;61893;50.074;14.440;2023-07-09T05:52:54;6.22;;;3.78;;
73015;SDS011;61893;50.074;14.440;2023-07-09T05:55:20;7.35;;;4.20;;
73015;SDS011;61893;50.074;14.440;2023-07-09T05:57:46;5.60;;;4.30;;
73015;SDS011;61893;50.074;14.440;2023-07-09T06:00:12;9.90;;;4.20;;
73015;SDS011;61893;50.074;14.440;2023-07-09T06:02:39;7.00;;;4.03;;
73015;SDS011;61893;50.074;14.440;2023-07-09T06:05:23;6.15;;;4.10;;
73015;SDS011;61893;50.074;14.440;2023-07-09T06:08:03;5.75;;;3.92;;
73015;SDS011;61893;50.074;14.440;2023-07-09T06:10:30;4.55;;;3.70;;
73015;SDS011;61893;50.074;14.440;2023-07-09T06:12:56;5.10;;;4.15;;
73015;SDS011;61893;50.074;14.440;2023-07-09T06:15:54;4.90;;;3.90;;
73015;SDS011;61893;50.074;14.440;2023-07-09T06:18:35;4.68;;;3.95;;
73015;SDS011;61893;50.074;14.440;2023-07-09T06:21:16;6.25;;;4.00;;
73015;SDS011;61893;50.074;14.440;2023-07-09T06:23:57;4.93;;;3.92;;
73015;SDS011;61893;50.074;14.440;2023-07-09T06:26:37;6.78;;;3.53;;
73015;SDS011;61893;50.074;14.440;2023-07-09T06:29:18;6.05;;;3.83;;
73015;SDS011;61893;50.074;14.440;2023-07-09T06:31:59;4.63;;;3.75;;
73015;SDS011;61893;50.074;14.440;2023-07-09T06:34:58;5.15;;;3.65;;
73015;SDS011;61893;50.074;14.440;2023-07-09T06:37:24;4.57;;;3.40;;
73015;SDS011;61893;50.074;14.440;2023-07-09T06:40:18;8.05;;;3.60;;
73015;SDS011;61893;50.074;14.440;2023-07-09T06:42:48;5.63;;;4.00;;
73015;SDS011;61893;50.074;14.440;2023-07-09T06:45:14;8.82;;;3.78;;
73015;SDS011;61893;50.074;14.440;2023-07-09T06:48:01;5.80;;;3.35;;
73015;SDS011;61893;50.074;14.440;2023-07-09T06:50:43;5.60;;;3.70;;
73015;SDS011;61893;50.074;14.440;2023-07-09T06:53:41;7.53;;;4.00;;
73015;SDS011;61893;50.074;14.440;2023-07-09T06:56:24;6.72;;;3.60;;
73015;SDS011;61893;50.074;14.440;2023-07-09T06:59:05;6.63;;;3.38;;
73015;SDS011;61893;50.074;14.440;2023-07-09T07:01:45;4.65;;;3.30;;
73015;SDS011;61893;50.074;14.440;2023-07-09T07:04:14;5.22;;;3.58;;
73015;SDS011;61893;50.074;14.440;2023-07-09T07:06:53;4.18;;;3.40;;
73015;SDS011;61893;50.074;14.440;2023-07-09T07:12:28;4.38;;;3.20;;
73015;SDS011;61893;50.074;14.440;2023-07-09T07:15:21;3.85;;;3.08;;
73015;SDS011;61893;50.074;14.440;2023-07-09T07:18:02;6.82;;;3.40;;
73015;SDS011;61893;50.074;14.440;2023-07-09T07:21:01;5.80;;;3.28;;
73015;SDS011;61893;50.074;14.440;2023-07-09T07:24:02;5.75;;;3.20;;
73015;SDS011;61893;50.074;14.440;2023-07-09T07:26:55;5.68;;;3.53;;
73015;SDS011;61893;50.074;14.440;2023-07-09T07:29:58;5.25;;;3.15;;
73015;SDS011;61893;50.074;14.440;2023-07-09T07:32:39;7.93;;;3.47;;
73015;SDS011;61893;50.074;14.440;2023-07-09T07:35:24;7.45;;;3.58;;
73015;SDS011;61893;50.074;14.440;2023-07-09T07:38:05;4.55;;;3.47;;
73015;SDS011;61893;50.074;14.440;2023-07-09T07:40:50;4.10;;;3.20;;
73015;SDS011;61893;50.074;14.440;2023-07-09T07:43:31;8.35;;;3.25;;
73015;SDS011;61893;50.074;14.440;2023-07-09T07:46:02;5.90;;;3.33;;
73015;SDS011;61893;50.074;14.440;2023-07-09T07:48:41;7.95;;;3.03;;
73015;SDS011;61893;50.074;14.440;2023-07-09T07:51:22;3.97;;;3.00;;
73015;SDS011;61893;50.074;14.440;2023-07-09T07:54:03;5.35;;;3.25;;
73015;SDS011;61893;50.074;14.440;2023-07-09T07:56:37;5.50;;;3.10;;
73015;SDS011;61893;50.074;14.440;2023-07-09T07:59:24;4.43;;;2.78;;
73015;SDS011;61893;50.074;14.440;2023-07-09T08:02:09;3.67;;;2.63;;
73015;SDS011;61893;50.074;14.440;2023-07-09T08:05:16;3.15;;;2.70;;
73015;SDS011;61893;50.074;14.440;2023-07-09T08:08:20;4.30;;;2.83;;
73015;SDS011;61893;50.074;14.440;2023-07-09T08:11:22;3.20;;;2.90;;
73015;SDS011;61893;50.074;14.440;2023-07-09T08:14:23;4.88;;;2.90;;
73015;SDS011;61893;50.074;14.440;2023-07-09T08:17:17;5.75;;;2.90;;
73015;SDS011;61893;50.074;14.440;2023-07-09T08:20:11;5.18;;;2.88;;
73015;SDS011;61893;50.074;14.440;2023-07-09T08:23:01;5.20;;;3.03;;
73015;SDS011;61893;50.074;14.440;2023-07-09T08:26:15;5.20;;;2.90;;
73015;SDS011;61893;50.074;14.440;2023-07-09T08:28:56;3.45;;;2.60;;
73015;SDS011;61893;50.074;14.440;2023-07-09T08:31:25;3.85;;;2.90;;
73015;SDS011;61893;50.074;14.440;2023-07-09T08:33:50;4.93;;;3.00;;
73015;SDS011;61893;50.074;14.440;2023-07-09T08:36:18;6.07;;;2.90;;
73015;SDS011;61893;50.074;14.440;2023-07-09T08:38:44;4.47;;;2.83;;
73015;SDS011;61893;50.074;14.440;2023-07-09T08:44:22;3.95;;;2.80;;
73015;SDS011;61893;50.074;14.440;2023-07-09T08:50:14;5.15;;;2.78;;
73015;SDS011;61893;50.074;14.440;2023-07-09T08:52:58;4.35;;;2.80;;
73015;SDS011;61893;50.074;14.440;2023-07-09T08:55:39;3.50;;;2.42;;
73015;SDS011;61893;50.074;14.440;2023-07-09T08:58:52;4.63;;;2.30;;
73015;SDS011;61893;50.074;14.440;2023-07-09T09:01:57;3.95;;;2.67;;
73015;SDS011;61893;50.074;14.440;2023-07-09T09:04:43;4.53;;;3.17;;
73015;SDS011;61893;50.074;14.440;2023-07-09T09:07:31;3.95;;;2.65;;
73015;SDS011;61893;50.074;14.440;2023-07-09T09:12:56;3.75;;;2.78;;
73015;SDS011;61893;50.074;14.440;2023-07-09T09:15:46;5.35;;;2.90;;
73015;SDS011;61893;50.074;14.440;2023-07-09T09:18:22;5.53;;;2.70;;
73015;SDS011;61893;50.074;14.440;2023-07-09T09:21:36;4.75;;;2.80;;
73015;SDS011;61893;50.074;14.440;2023-07-09T09:23:57;4.35;;;2.65;;
73015;SDS011;61893;50.074;14.440;2023-07-09T09:26:32;3.80;;;2.83;;
73015;SDS011;61893;50.074;14.440;2023-07-09T09:29:09;3.15;;;2.53;;
73015;SDS011;61893;50.074;14.440;2023-07-09T09:31:40;5.63;;;3.00;;
73015;SDS011;61893;50.074;14.440;2023-07-09T09:34:27;6.85;;;2.75;;
73015;SDS011;61893;50.074;14.440;2023-07-09T09:37:01;4.40;;;2.72;;
73015;SDS011;61893;50.074;14.440;2023-07-09T09:39:26;4.63;;;2.67;;
73015;SDS011;61893;50.074;14.440;2023-07-09T09:42:11;3.63;;;2.85;;
73015;SDS011;61893;50.074;14.440;2023-07-09T09:44:44;6.65;;;2.88;;
73015;SDS011;61893;50.074;14.440;2023-07-09T09:47:11;2.95;;;2.40;;
73015;SDS011;61893;50.074;14.440;2023-07-09T09:49:43;5.82;;;2.58;;
73015;SDS011;61893;50.074;14.440;2023-07-09T09:52:13;4.32;;;2.72;;
73015;SDS011;61893;50.074;14.440;2023-07-09T09:54:50;2.88;;;2.55;;
73015;SDS011;61893;50.074;14.440;2023-07-09T09:57:21;4.65;;;2.70;;
73015;SDS011;61893;50.074;14.440;2023-07-09T09:59:50;5.38;;;2.75;;
73015;SDS011;61893;50.074;14.440;2023-07-09T10:02:21;5.05;;;2.58;;
73015;SDS011;61893;50.074;14.440;2023-07-09T10:04:51;5.55;;;2.72;;
73015;SDS011;61893;50.074;14.440;2023-07-09T10:07:27;3.25;;;2.60;;
73015;SDS011;61893;50.074;14.440;2023-07-09T10:10:00;3.87;;;2.57;;
73015;SDS011;61893;50.074;14.440;2023-07-09T10:17:44;5.88;;;3.08;;
73015;SDS011;61893;50.074;14.440;2023-07-09T10:26:52;3.40;;;2.80;;
73015;SDS011;61893;50.074;14.440;2023-07-09T10:35:11;10.00;;;3.20;;
73015;SDS011;61893;50.074;14.440;2023-07-09T10:38:03;4.35;;;3.28;;
73015;SDS011;61893;50.074;14.440;2023-07-09T10:40:37;7.05;;;4.55;;
73015;SDS011;61893;50.074;14.440;2023-07-09T10:43:37;4.78;;;3.17;;
73015;SDS011;61893;50.074;14.440;2023-07-09T10:46:21;5.90;;;3.00;;
73015;SDS011;61893;50.074;14.440;2023-07-09T10:48:51;4.45;;;2.90;;
73015;SDS011;61893;50.074;14.440;2023-07-09T10:51:29;4.20;;;2.95;;
73015;SDS011;61893;50.074;14.440;2023-07-09T10:59:51;5.18;;;3.08;;
73015;SDS011;61893;50.074;14.440;2023-07-09T11:02:33;3.83;;;2.60;;
73015;SDS011;61893;50.074;14.440;2023-07-09T11:05:16;4.95;;;2.97;;
73015;SDS011;61893;50.074;14.440;2023-07-09T11:07:48;3.72;;;2.88;;
73015;SDS011;61893;50.074;14.440;2023-07-09T11:10:56;4.47;;;3.25;;
73015;SDS011;61893;50.074;14.440;2023-07-09T11:13:46;5.25;;;3.03;;
73015;SDS011;61893;50.074;14.440;2023-07-09T11:16:30;3.65;;;2.88;;
73015;SDS011;61893;50.074;14.440;2023-07-09T11:19:03;5.30;;;2.95;;
73015;SDS011;61893;50.074;14.440;2023-07-09T11:21:33;7.50;;;2.90;;
73015;SDS011;61893;50.074;14.440;2023-07-09T11:24:24;7.13;;;3.10;;
73015;SDS011;61893;50.074;14.440;2023-07-09T11:27:00;7.57;;;3.58;;
73015;SDS011;61893;50.074;14.440;2023-07-09T11:29:26;4.65;;;3.08;;
73015;SDS011;61893;50.074;14.440;2023-07-09T11:31:55;5.57;;;3.08;;
73015;SDS011;61893;50.074;14.440;2023-07-09T11:34:26;5.30;;;3.00;;
73015;SDS011;61893;50.074;14.440;2023-07-09T11:37:12;7.75;;;2.97;;
73015;SDS011;61893;50.074;14.440;2023-07-09T11:42:25;5.53;;;3.15;;
73015;SDS011;61893;50.074;14.440;2023-07-09T11:45:09;7.72;;;2.70;;
73015;SDS011;61893;50.074;14.440;2023-07-09T11:47:41;3.85;;;2.78;;
73015;SDS011;61893;50.074;14.440;2023-07-09T11:50:20;4.38;;;2.65;;
73015;SDS011;61893;50.074;14.440;2023-07-09T11:53:38;4.78;;;2.70;;
73015;SDS011;61893;50.074;14.440;2023-07-09T11:56:08;3.78;;;2.80;;
73015;SDS011;61893;50.074;14.440;2023-07-09T11:58:35;6.32;;;3.10;;
73015;SDS011;61893;50.074;14.440;2023-07-09T12:01:16;4.05;;;2.90;;
73015;SDS011;61893;50.074;14.440;2023-07-09T12:03:48;5.35;;;3.17;;
73015;SDS011;61893;50.074;14.440;2023-07-09T12:06:21;5.35;;;3.53;;
73015;SDS011;61893;50.074;14.440;2023-07-09T12:08:51;4.50;;;2.90;;
73015;SDS011;61893;50.074;14.440;2023-07-09T12:11:19;4.43;;;3.22;;
73015;SDS011;61893;50.074;14.440;2023-07-09T12:14:05;5.85;;;3.00;;
73015;SDS011;61893;50.074;14.440;2023-07-09T12:16:41;5.05;;;2.78;;
73015;SDS011;61893;50.074;14.440;2023-07-09T12:19:15;6.10;;;3.05;;
73015;SDS011;61893;50.074;14.440;2023-07-09T12:24:21;4.43;;;3.00;;
73015;SDS011;61893;50.074;14.440;2023-07-09T12:26:56;3.67;;;2.80;;
73015;SDS011;61893;50.074;14.440;2023-07-09T12:29:26;4.18;;;3.13;;
73015;SDS011;61893;50.074;14.440;2023-07-09T12:31:56;5.32;;;2.83;;
73015;SDS011;61893;50.074;14.440;2023-07-09T12:34:23;3.63;;;2.83;;
73015;SDS011;61893;50.074;14.440;2023-07-09T12:37:00;4.75;;;2.97;;
73015;SDS011;61893;50.074;14.440;2023-07-09T12:40:16;4.97;;;3.00;;
73015;SDS011;61893;50.074;14.440;2023-07-09T12:43:01;7.05;;;3.00;;
73015;SDS011;61893;50.074;14.440;2023-07-09T12:46:13;4.80;;;2.92;;
73015;SDS011;61893;50.074;14.440;2023-07-09T12:48:42;4.25;;;3.08;;
73015;SDS011;61893;50.074;14.440;2023-07-09T12:51:13;4.40;;;2.90;;
73015;SDS011;61893;50.074;14.440;2023-07-09T12:54:02;6.07;;;2.90;;
73015;SDS011;61893;50.074;14.440;2023-07-09T12:56:54;6.10;;;2.97;;
73015;SDS011;61893;50.074;14.440;2023-07-09T12:59:37;6.18;;;2.97;;
73015;SDS011;61893;50.074;14.440;2023-07-09T13:05:03;4.65;;;2.65;;
73015;SDS011;61893;50.074;14.440;2023-07-09T13:07:50;4.43;;;2.80;;
73015;SDS011;61893;50.074;14.440;2023-07-09T13:10:40;5.20;;;2.70;;
73015;SDS011;61893;50.074;14.440;2023-07-09T13:13:31;4.05;;;2.65;;
73015;SDS011;61893;50.074;14.440;2023-07-09T13:16:12;5.60;;;2.70;;
73015;SDS011;61893;50.074;14.440;2023-07-09T13:18:54;4.85;;;3.03;;
73015;SDS011;61893;50.074;14.440;2023-07-09T13:21:34;5.38;;;2.92;;
73015;SDS011;61893;50.074;14.440;2023-07-09T13:24:01;5.80;;;3.15;;
73015;SDS011;61893;50.074;14.440;2023-07-09T13:26:51;9.07;;;3.05;;
73015;SDS011;61893;50.074;14.440;2023-07-09T13:29:33;5.00;;;2.90;;
73015;SDS011;61893;50.074;14.440;2023-07-09T13:32:00;3.90;;;2.80;;
73015;SDS011;61893;50.074;14.440;2023-07-09T13:34:27;4.80;;;2.92;;
73015;SDS011;61893;50.074;14.440;2023-07-09T13:36:59;4.03;;;2.40;;
73015;SDS011;61893;50.074;14.440;2023-07-09T13:39:24;2.80;;;2.42;;
73015;SDS011;61893;50.074;14.440;2023-07-09T13:41:51;2.92;;;2.58;;
73015;SDS011;61893;50.074;14.440;2023-07-09T13:44:25;4.13;;;2.80;;
73015;SDS011;61893;50.074;14.440;2023-07-09T13:47:15;4.43;;;2.90;;
73015;SDS011;61893;50.074;14.440;2023-07-09T13:49:56;7.57;;;2.90;;
73015;SDS011;61893;50.074;14.440;2023-07-09T13:52:37;5.10;;;2.92;;
73015;SDS011;61893;50.074;14.440;2023-07-09T13:55:19;4.45;;;2.83;;
73015;SDS011;61893;50.074;14.440;2023-07-09T13:58:01;5.25;;;2.75;;
73015;SDS011;61893;50.074;14.440;2023-07-09T14:00:42;4.05;;;2.88;;
73015;SDS011;61893;50.074;14.440;2023-07-09T14:03:26;4.60;;;2.90;;
73015;SDS011;61893;50.074;14.440;2023-07-09T14:06:14;5.03;;;2.88;;
73015;SDS011;61893;50.074;14.440;2023-07-09T14:08:58;4.65;;;2.75;;
73015;SDS011;61893;50.074;14.440;2023-07-09T14:11:47;3.95;;;2.42;;
73015;SDS011;61893;50.074;14.440;2023-07-09T14:14:31;5.32;;;3.00;;
73015;SDS011;61893;50.074;14.440;2023-07-09T14:16:58;4.22;;;2.88;;
73015;SDS011;61893;50.074;14.440;2023-07-09T14:19:26;4.50;;;2.80;;
73015;SDS011;61893;50.074;14.440;2023-07-09T14:21:53;5.40;;;3.00;;
73015;SDS011;61893;50.074;14.440;2023-07-09T14:24:25;3.60;;;2.55;;
73015;SDS011;61893;50.074;14.440;2023-07-09T14:27:07;5.90;;;2.60;;
73015;SDS011;61893;50.074;14.440;2023-07-09T14:29:49;3.65;;;2.40;;
73015;SDS011;61893;50.074;14.440;2023-07-09T14:32:36;6.45;;;2.42;;
73015;SDS011;61893;50.074;14.440;2023-07-09T14:35:22;6.13;;;2.70;;
73015;SDS011;61893;50.074;14.440;2023-07-09T14:38:06;5.78;;;2.67;;
73015;SDS011;61893;50.074;14.440;2023-07-09T14:41:04;4.30;;;2.78;;
73015;SDS011;61893;50.074;14.440;2023-07-09T14:46:57;3.42;;;2.55;;
73015;SDS011;61893;50.074;14.440;2023-07-09T14:49:25;3.35;;;2.65;;
73015;SDS011;61893;50.074;14.440;2023-07-09T14:52:14;6.25;;;2.90;;
73015;SDS011;61893;50.074;14.440;2023-07-09T14:55:02;5.53;;;3.20;;
73015;SDS011;61893;50.074;14.440;2023-07-09T14:57:43;5.00;;;2.78;;
73015;SDS011;61893;50.074;14.440;2023-07-09T15:00:41;5.30;;;2.65;;
73015;SDS011;61893;50.074;14.440;2023-07-09T15:03:24;5.32;;;3.13;;
73015;SDS011;61893;50.074;14.440;2023-07-09T15:06:06;4.68;;;3.15;;
73015;SDS011;61893;50.074;14.440;2023-07-09T15:08:47;5.80;;;3.17;;
73015;SDS011;61893;50.074;14.440;2023-07-09T15:11:27;4.75;;;3.45;;
73015;SDS011;61893;50.074;14.440;2023-07-09T15:14:11;6.05;;;3.20;;
73015;SDS011;61893;50.074;14.440;2023-07-09T15:16:37;5.47;;;3.20;;
73015;SDS011;61893;50.074;14.440;2023-07-09T15:19:19;5.20;;;3.08;;
73015;SDS011;61893;50.074;14.440;2023-07-09T15:22:01;4.47;;;3.10;;
73015;SDS011;61893;50.074;14.440;2023-07-09T15:24:42;5.63;;;3.50;;
73015;SDS011;61893;50.074;14.440;2023-07-09T15:27:36;6.80;;;2.67;;
73015;SDS011;61893;50.074;14.440;2023-07-09T15:30:18;4.68;;;3.20;;
73015;SDS011;61893;50.074;14.440;2023-07-09T15:33:01;5.18;;;3.15;;
73015;SDS011;61893;50.074;14.440;2023-07-09T15:35:42;5.65;;;3.00;;
73015;SDS011;61893;50.074;14.440;2023-07-09T15:41:10;4.57;;;3.00;;
73015;SDS011;61893;50.074;14.440;2023-07-09T15:43:52;4.10;;;3.05;;
73015;SDS011;61893;50.074;14.440;2023-07-09T15:46:33;4.00;;;2.95;;
73015;SDS011;61893;50.074;14.440;2023-07-09T15:52:03;4.05;;;2.90;;
73015;SDS011;61893;50.074;14.440;2023-07-09T15:54:29;6.22;;;3.05;;
73015;SDS011;61893;50.074;14.440;2023-07-09T15:57:22;5.03;;;3.13;;
73015;SDS011;61893;50.074;14.440;2023-07-09T16:00:12;4.20;;;3.15;;
73015;SDS011;61893;50.074;14.440;2023-07-09T16:03:00;4.70;;;3.30;;
73015;SDS011;61893;50.074;14.440;2023-07-09T16:05:31;4.97;;;3.00;;
73015;SDS011;61893;50.074;14.440;2023-07-09T16:08:14;5.47;;;3.17;;
73015;SDS011;61893;50.074;14.440;2023-07-09T16:10:57;5.93;;;3.10;;
73015;SDS011;61893;50.074;14.440;2023-07-09T16:13:37;4.72;;;2.90;;
73015;SDS011;61893;50.074;14.440;2023-07-09T16:16:16;4.37;;;3.20;;
73015;SDS011;61893;50.074;14.440;2023-07-09T16:18:54;5.22;;;3.13;;